»·PEaware :: SWA494 KSAN-KPHX

SWA494 :: KSAN-KPHX

FLIGHT INFORMATION

Flight Status: Arrived
Operator:
Southwest Airlines
More flights by this operator :: More flights under this callsign
Pilot: Brian A. (9771)
Aircraft: BOEING 737-800
(B738)
More flights by this aircraft type
Origin: KSAN San Diego Intl-Lindbergh
United States
Destination: KPHX Phoenix Sky Harbor Intl
United States
More flights between these airports :: More routes between these airports
Route: +ZZOOO1 IPL J18 BZA HOGGZ HYDRR1
File this flight plan on PilotEdge
Remarks:
Altitude:
(Current/Filed)
27,000ft
Speed:
(Current/Filed)
425kts
Departed: 06-Oct-17 05:24 PM
Arrived: 06-Oct-17 06:15 PM
Distance/Time
Traveled:
264nm/0:51
Distance/Time
To Go:
Arrived

Flight Plot

Page will automatically refresh every two minutes.


Map Options




Map Legend


Flown Route
Filed Route
Departure Airport
Arrival Airport
Navaid (VOR, NDB)
Fix

Horizontal Profiles

Position Reports

Time Latitude Longitude Heading Altitude Ground
Speed
06-Oct-17 16:55 32.732272 -117.200151 200 22ft 0kts
06-Oct-17 16:56 32.732272 -117.200151 200 22ft 0kts
06-Oct-17 16:57 32.732272 -117.200151 200 22ft 0kts
06-Oct-17 16:58 32.732272 -117.200151 200 22ft 0kts
06-Oct-17 16:59 32.732272 -117.200151 200 22ft 0kts
06-Oct-17 17:00 32.732272 -117.200151 200 22ft 0kts
06-Oct-17 17:01 32.732272 -117.200151 200 22ft 0kts
06-Oct-17 17:02 32.732272 -117.200151 200 22ft 0kts
06-Oct-17 17:03 32.732272 -117.200151 200 22ft 0kts
06-Oct-17 17:04 32.732272 -117.200151 200 22ft 0kts
06-Oct-17 17:05 32.732272 -117.200151 200 22ft 0kts
06-Oct-17 17:06 32.732272 -117.200151 200 22ft 0kts
06-Oct-17 17:07 32.732272 -117.200151 200 22ft 0kts
06-Oct-17 17:08 32.732272 -117.200151 200 22ft 0kts
06-Oct-17 17:09 32.732272 -117.200151 200 22ft 0kts
06-Oct-17 17:10 32.732272 -117.200151 200 22ft 0kts
06-Oct-17 17:11 32.732272 -117.200151 200 22ft 0kts
06-Oct-17 17:12 32.732272 -117.200151 200 22ft 0kts
06-Oct-17 17:13 32.732272 -117.200151 200 22ft 0kts
06-Oct-17 17:14 32.732272 -117.200151 200 22ft 0kts
06-Oct-17 17:15 32.732272 -117.200151 200 22ft 0kts
06-Oct-17 17:16 32.732272 -117.200151 200 22ft 0kts
06-Oct-17 17:17 32.732747 -117.199942 202 22ft 2kts
06-Oct-17 17:18 32.733148 -117.199257 264 22ft 0kts
06-Oct-17 17:19 32.733148 -117.199258 264 22ft 0kts
06-Oct-17 17:20 32.733148 -117.199259 264 22ft 0kts
06-Oct-17 17:21 32.733148 -117.199261 264 22ft 0kts
06-Oct-17 17:22 32.733221 -117.199698 294 22ft 13kts
06-Oct-17 17:23 32.734148 -117.197399 106 22ft 18kts
06-Oct-17 17:24 32.733753 -117.194741 101 22ft 11kts
06-Oct-17 17:25 32.732192 -117.188307 106 22ft 14kts
06-Oct-17 17:26 32.730347 -117.180626 106 22ft 27kts
06-Oct-17 17:27 32.729742 -117.176041 58 22ft 15kts
06-Oct-17 17:28 32.735435 -117.197477 284 133ft 157kts
06-Oct-17 17:29 32.743946 -117.258995 281 2069ft 220kts
06-Oct-17 17:30 32.741982 -117.332497 242 4639ft 234kts
06-Oct-17 17:31 32.679942 -117.360678 151 6512ft 286kts
06-Oct-17 17:32 32.648519 -117.283312 93 9794ft 268kts
06-Oct-17 17:33 32.633077 -117.189188 105 11254ft 327kts
06-Oct-17 17:34 32.616103 -117.072393 94 12228ft 387kts
06-Oct-17 17:35 32.605143 -116.942185 89 14234ft 405kts
06-Oct-17 17:36 32.622961 -116.809233 74 16202ft 418kts
06-Oct-17 17:37 32.641491 -116.670312 82 18066ft 433kts
06-Oct-17 17:38 32.654410 -116.526180 82 19720ft 446kts
06-Oct-17 17:39 32.668610 -116.377440 81 21199ft 459kts
06-Oct-17 17:40 32.683264 -116.225213 82 22515ft 470kts
06-Oct-17 17:41 32.697744 -116.069237 82 23675ft 481kts
06-Oct-17 17:42 32.712520 -115.909146 82 24638ft 492kts
06-Oct-17 17:43 32.727684 -115.746168 82 25584ft 501kts
06-Oct-17 17:44 32.742514 -115.580238 82 26481ft 509kts
06-Oct-17 17:45 32.752253 -115.411810 88 26901ft 510kts
06-Oct-17 17:46 32.755454 -115.243561 87 26910ft 510kts
06-Oct-17 17:47 32.758949 -115.074547 87 26908ft 511kts
06-Oct-17 17:48 32.762636 -114.906007 87 26905ft 511kts
06-Oct-17 17:49 32.765798 -114.737377 87 26902ft 512kts
06-Oct-17 17:50 32.768608 -114.567891 88 26901ft 512kts
06-Oct-17 17:51 32.771056 -114.398904 87 26901ft 512kts
06-Oct-17 17:52 32.773190 -114.229494 88 25191ft 508kts
06-Oct-17 17:53 32.775393 -114.064391 85 24906ft 495kts
06-Oct-17 17:54 32.793104 -113.902224 80 24906ft 496kts
06-Oct-17 17:55 32.811690 -113.739059 75 24902ft 496kts
06-Oct-17 17:56 32.876644 -113.604385 42 24904ft 443kts
06-Oct-17 17:57 32.958301 -113.497573 43 24902ft 427kts
06-Oct-17 17:58 33.034964 -113.394099 43 23602ft 406kts
06-Oct-17 17:59 33.111211 -113.291407 44 20901ft 419kts
06-Oct-17 18:00 33.188775 -113.186151 44 18197ft 422kts
06-Oct-17 18:01 33.261193 -113.082337 58 16062ft 391kts
06-Oct-17 18:02 33.277315 -112.979886 85 15017ft 360kts
06-Oct-17 18:03 33.273059 -112.862474 111 13841ft 356kts
06-Oct-17 18:04 33.252355 -112.734222 84 12345ft 339kts
06-Oct-17 18:05 33.266457 -112.645879 73 11503ft 314kts
06-Oct-17 18:06 33.289769 -112.529304 73 10997ft 309kts
06-Oct-17 18:07 33.306239 -112.445835 73 10994ft 309kts
06-Oct-17 18:08 33.325298 -112.345209 78 10991ft 310kts
06-Oct-17 18:09 33.335612 -112.228466 81 10631ft 294kts
06-Oct-17 18:10 33.342894 -112.146034 81 9303ft 303kts
06-Oct-17 18:11 33.347905 -112.050582 89 9018ft 263kts
06-Oct-17 18:12 33.346103 -111.965140 88 8174ft 259kts
06-Oct-17 18:13 33.345563 -111.877017 87 6089ft 264kts
06-Oct-17 18:14 33.360161 -111.797110 28 4078ft 245kts
06-Oct-17 18:15 33.411008 -111.818587 300 3001ft 198kts
06-Oct-17 18:16 33.429246 -111.874991 267 2982ft 166kts
06-Oct-17 18:17 33.428802 -111.928022 270 2359ft 155kts
06-Oct-17 18:18 33.428818 -111.977717 272 1617ft 148kts
06-Oct-17 18:19 33.428828 -112.019391 269 1143ft 36kts
06-Oct-17 18:20 33.429524 -112.021857 348 1143ft 0kts
06-Oct-17 18:21 33.430047 -112.020688 94 1143ft 9kts
06-Oct-17 18:22 33.429963 -112.018560 87 1143ft 9kts
06-Oct-17 18:23 33.431648 -112.016064 323 1143ft 8kts
06-Oct-17 18:24 33.432490 -112.015738 8 1143ft 8kts
06-Oct-17 18:25 33.432891 -112.010898 90 1143ft 10kts
06-Oct-17 18:26 33.433794 -112.009347 85 1143ft 0kts
06-Oct-17 18:27 33.433794 -112.009347 85 1143ft 0kts
06-Oct-17 18:28 33.433794 -112.009347 85 1143ft 0kts

Navigation Log

Ident Type
1. KSAN Airport
2. JETTI Fix
3. ZZOOO Fix
4. JORRJ Fix
5. GRIDR Fix
6. BLUZE Fix
7. IPL Navaid
8. IPL Navaid
9. HEEDS Fix
10. BZA Navaid
11. HOGGZ Fix
12. JUDTH Fix
13. RKDAM Fix
14. HYDRR Fix
15. GEELA Fix
16. PUNNT Fix
17. TEICH Fix
18. TESLE Fix
19. FALGO Fix
20. CAGOR Fix
21. FOWLE Fix
22. KPHX Airport